Time;durP1;ratioP1;P1;durP2;ratioP2;P2;SDS_P1;SDS_P2;PMS_P1;PMS_P2;Temp;Humidity;BMP_temperature;BMP_pressure;BME280_temperature;BME280_humidity;BME280_pressure;Samples;Min_cycle;Max_cycle;Signal;HPM_P1;HPM_P2
2022/08/10 00:00:51;;;;;;;2.50;2.30;;;;;;;;;;5073276;28;20890;-49
2022/08/10 00:03:16;;;;;;;3.97;2.30;;;;;;;;;;5061411;28;20437;-49
2022/08/10 00:05:42;;;;;;;2.93;2.70;;;;;;;;;;5060300;28;20504;-49
2022/08/10 00:08:08;;;;;;;6.87;2.70;;;;;;;;;;5073702;28;20793;-49
2022/08/10 00:10:34;;;;;;;3.87;2.90;;;;;;;;;;5072944;28;20456;-49
2022/08/10 00:13:00;;;;;;;2.97;2.67;;;;;;;;;;5073988;28;20408;-48
2022/08/10 00:15:26;;;;;;;3.00;2.80;;;;;;;;;;5055442;28;20786;-49
2022/08/10 00:17:52;;;;;;;2.67;2.47;;;;;;;;;;5053567;28;20431;-49
2022/08/10 00:20:18;;;;;;;4.83;2.67;;;;;;;;;;5052884;28;20385;-49
2022/08/10 00:22:44;;;;;;;2.97;2.47;;;;;;;;;;5053478;28;20414;-49
2022/08/10 00:25:10;;;;;;;3.20;2.90;;;;;;;;;;5053532;28;20815;-49
2022/08/10 00:27:36;;;;;;;3.27;2.57;;;;;;;;;;5053627;28;20802;-49
2022/08/10 00:30:03;;;;;;;2.73;2.47;;;;;;;;;;5052699;28;20460;-49
2022/08/10 00:32:29;;;;;;;3.77;2.67;;;;;;;;;;5053380;28;20791;-49
2022/08/10 00:34:55;;;;;;;5.23;2.30;;;;;;;;;;5053363;28;20376;-50
2022/08/10 00:37:21;;;;;;;4.67;2.43;;;;;;;;;;5053186;28;20464;-49
2022/08/10 00:39:47;;;;;;;3.77;2.90;;;;;;;;;;5052492;28;20410;-49
2022/08/10 00:42:14;;;;;;;2.83;2.53;;;;;;;;;;5051871;28;20778;-49
2022/08/10 00:44:49;;;;;;;2.60;2.40;;;;;;;;;;5053611;28;20433;-49
2022/08/10 00:47:16;;;;;;;3.73;2.53;;;;;;;;;;5053031;28;20433;-49
2022/08/10 00:49:42;;;;;;;6.33;2.73;;;;;;;;;;5052702;28;20457;-49
2022/08/10 00:52:08;;;;;;;3.20;2.93;;;;;;;;;;5053196;28;20408;-48
2022/08/10 00:54:36;;;;;;;2.80;2.67;;;;;;;;;;5053238;28;20466;-49
2022/08/10 00:57:03;;;;;;;2.90;2.70;;;;;;;;;;5052700;28;20998;-49
2022/08/10 00:59:30;;;;;;;8.10;3.77;;;;;;;;;;5052755;28;20413;-49
2022/08/10 01:01:56;;;;;;;4.73;2.93;;;;;;;;;;5051368;28;20397;-49
2022/08/10 01:04:22;;;;;;;4.40;2.60;;;;;;;;;;5052261;28;20405;-49
2022/08/10 01:07:07;;;;;;;3.40;2.80;;;;;;;;;;5051833;28;20417;-49
2022/08/10 01:09:53;;;;;;;3.30;2.80;;;;;;;;;;5052317;28;20425;-49
2022/08/10 01:12:19;;;;;;;3.73;2.30;;;;;;;;;;5052441;28;20379;-49
2022/08/10 01:14:48;;;;;;;2.83;2.53;;;;;;;;;;5052245;28;20767;-49
2022/08/10 01:17:16;;;;;;;2.50;2.30;;;;;;;;;;5052682;28;20417;-49
2022/08/10 01:19:54;;;;;;;2.53;2.43;;;;;;;;;;5051789;28;20381;-48
2022/08/10 01:22:38;;;;;;;4.17;2.60;;;;;;;;;;5052457;28;20404;-49
2022/08/10 01:25:23;;;;;;;3.10;2.80;;;;;;;;;;5052313;28;20432;-49
2022/08/10 01:28:07;;;;;;;3.40;3.20;;;;;;;;;;5052339;28;20634;-49
2022/08/10 01:30:34;;;;;;;2.80;2.60;;;;;;;;;;5051678;28;20460;-48
2022/08/10 01:33:03;;;;;;;2.80;2.43;;;;;;;;;;5052231;28;20408;-49
2022/08/10 01:35:32;;;;;;;2.90;2.70;;;;;;;;;;5052122;28;20573;-49
2022/08/10 01:38:02;;;;;;;3.30;3.00;;;;;;;;;;5051864;28;20452;-49
2022/08/10 01:40:31;;;;;;;5.90;2.90;;;;;;;;;;5051437;28;20424;-50
2022/08/10 01:42:58;;;;;;;3.30;2.57;;;;;;;;;;5052174;28;20409;-49
2022/08/10 01:45:25;;;;;;;3.27;2.97;;;;;;;;;;5051791;28;20437;-49
2022/08/10 01:50:41;;;;;;;3.13;2.83;;;;;;;;;;5071294;28;20461;-49
2022/08/10 01:53:09;;;;;;;3.40;3.03;;;;;;;;;;5071651;28;20423;-50
2022/08/10 01:55:36;;;;;;;4.00;3.00;;;;;;;;;;5071916;28;20921;-50
2022/08/10 01:58:03;;;;;;;3.17;2.97;;;;;;;;;;5071775;28;20512;-50
2022/08/10 02:00:31;;;;;;;3.97;2.90;;;;;;;;;;5071710;28;20458;-49
2022/08/10 02:02:58;;;;;;;3.10;2.80;;;;;;;;;;5071795;28;20375;-49
2022/08/10 02:05:26;;;;;;;3.73;2.90;;;;;;;;;;5072356;28;20802;-48
2022/08/10 02:07:54;;;;;;;3.30;3.00;;;;;;;;;;5071793;28;20429;-49
2022/08/10 02:10:21;;;;;;;2.63;2.37;;;;;;;;;;5071021;28;20890;-49
2022/08/10 02:12:48;;;;;;;3.17;2.97;;;;;;;;;;5071833;28;20417;-48
2022/08/10 02:15:16;;;;;;;3.47;2.77;;;;;;;;;;5066569;28;20496;-49
2022/08/10 02:17:48;;;;;;;4.87;2.93;;;;;;;;;;5051110;28;20451;-49
2022/08/10 02:20:16;;;;;;;3.73;3.30;;;;;;;;;;5051050;28;20458;-48
2022/08/10 02:22:43;;;;;;;3.13;2.83;;;;;;;;;;5051629;28;20404;-49
2022/08/10 02:25:10;;;;;;;3.20;3.00;;;;;;;;;;5051611;28;20436;-48
2022/08/10 02:27:37;;;;;;;4.20;3.10;;;;;;;;;;5051539;28;20411;-49
2022/08/10 02:30:04;;;;;;;3.70;3.03;;;;;;;;;;5050634;28;20456;-48
2022/08/10 02:32:31;;;;;;;7.43;2.90;;;;;;;;;;5051583;28;21011;-48
2022/08/10 02:34:57;;;;;;;2.97;2.73;;;;;;;;;;5051527;28;20396;-49
2022/08/10 02:37:24;;;;;;;3.87;3.47;;;;;;;;;;5051433;28;20401;-48
2022/08/10 02:39:50;;;;;;;6.33;3.00;;;;;;;;;;5050750;28;20486;-48
2022/08/10 02:42:31;;;;;;;3.33;2.97;;;;;;;;;;5051337;28;20487;-48
2022/08/10 02:45:02;;;;;;;3.47;3.17;;;;;;;;;;5051267;28;20402;-48
2022/08/10 02:47:31;;;;;;;3.53;3.23;;;;;;;;;;5051389;28;20447;-49
2022/08/10 02:50:02;;;;;;;3.10;2.90;;;;;;;;;;5050606;28;20473;-49
2022/08/10 02:52:31;;;;;;;4.93;3.57;;;;;;;;;;5051438;28;20403;-49
2022/08/10 02:55:01;;;;;;;3.50;3.20;;;;;;;;;;5051203;28;20416;-48
2022/08/10 02:57:28;;;;;;;3.63;3.43;;;;;;;;;;5051117;28;20454;-48
2022/08/10 02:59:59;;;;;;;9.43;3.70;;;;;;;;;;5050613;28;20379;-48
2022/08/10 03:02:36;;;;;;;4.43;4.03;;;;;;;;;;5051784;28;20411;-49
2022/08/10 03:05:12;;;;;;;7.60;3.40;;;;;;;;;;5055108;28;20403;-48
2022/08/10 03:07:47;;;;;;;7.50;3.50;;;;;;;;;;5055015;28;20425;-48
2022/08/10 03:10:19;;;;;;;3.70;3.40;;;;;;;;;;5054149;28;20493;-48
2022/08/10 03:12:48;;;;;;;4.17;3.87;;;;;;;;;;5054935;28;20975;-48
2022/08/10 03:15:16;;;;;;;4.43;3.40;;;;;;;;;;5055060;28;20463;-49
2022/08/10 03:17:42;;;;;;;5.03;3.50;;;;;;;;;;5054770;28;20749;-48
2022/08/10 03:20:09;;;;;;;3.60;3.30;;;;;;;;;;5054030;28;20932;-49
2022/08/10 03:22:36;;;;;;;3.87;3.47;;;;;;;;;;5054694;28;20388;-48
2022/08/10 03:25:02;;;;;;;4.33;3.37;;;;;;;;;;5054684;28;20418;-48
2022/08/10 03:27:29;;;;;;;4.20;3.73;;;;;;;;;;5054560;28;20486;-48
2022/08/10 03:29:56;;;;;;;4.00;3.70;;;;;;;;;;5053819;28;20461;-49
2022/08/10 03:32:24;;;;;;;6.30;3.90;;;;;;;;;;5054457;28;20370;-48
2022/08/10 03:34:51;;;;;;;4.63;3.60;;;;;;;;;;5054589;28;20788;-48
2022/08/10 03:37:17;;;;;;;3.70;3.50;;;;;;;;;;5054569;28;20405;-48
2022/08/10 03:39:43;;;;;;;3.90;3.50;;;;;;;;;;5053782;28;20887;-49
2022/08/10 03:42:11;;;;;;;4.33;3.93;;;;;;;;;;5054381;28;20370;-48
2022/08/10 03:44:38;;;;;;;4.20;3.90;;;;;;;;;;5059918;28;20889;-48
2022/08/10 03:47:05;;;;;;;3.70;3.50;;;;;;;;;;5074131;28;20428;-48
2022/08/10 03:49:32;;;;;;;5.23;4.13;;;;;;;;;;5074125;28;20514;-48
2022/08/10 03:51:59;;;;;;;8.90;3.97;;;;;;;;;;5073639;28;20410;-49
2022/08/10 03:54:26;;;;;;;4.57;4.13;;;;;;;;;;5074149;28;20715;-48
2022/08/10 03:56:52;;;;;;;5.47;4.20;;;;;;;;;;5073957;28;20421;-48
2022/08/10 03:59:18;;;;;;;6.67;4.20;;;;;;;;;;5073956;28;20401;-48
2022/08/10 04:01:45;;;;;;;4.67;4.27;;;;;;;;;;5073439;28;20484;-48
2022/08/10 04:04:12;;;;;;;4.73;4.33;;;;;;;;;;5073943;28;20886;-49
2022/08/10 04:06:38;;;;;;;6.57;4.80;;;;;;;;;;5074013;28;20396;-49
2022/08/10 04:09:04;;;;;;;4.40;4.00;;;;;;;;;;5073891;28;20384;-48
2022/08/10 04:11:30;;;;;;;4.30;4.00;;;;;;;;;;5073073;28;20450;-48
2022/08/10 04:13:56;;;;;;;4.57;4.00;;;;;;;;;;5073343;28;20853;-48
2022/08/10 04:16:22;;;;;;;7.10;4.50;;;;;;;;;;5053711;28;21017;-48
2022/08/10 04:18:48;;;;;;;4.43;4.03;;;;;;;;;;5053643;28;20399;-49
2022/08/10 04:21:16;;;;;;;6.80;4.00;;;;;;;;;;5052873;28;20403;-48
2022/08/10 04:23:47;;;;;;;7.20;4.13;;;;;;;;;;5053335;28;20405;-48
2022/08/10 04:26:13;;;;;;;5.00;4.50;;;;;;;;;;5053454;28;20459;-50
2022/08/10 04:28:39;;;;;;;4.20;3.90;;;;;;;;;;5053348;28;20500;-49
2022/08/10 04:31:06;;;;;;;4.00;3.70;;;;;;;;;;5052783;28;20910;-49
2022/08/10 04:33:32;;;;;;;8.33;4.30;;;;;;;;;;5053597;28;20400;-48
2022/08/10 04:35:58;;;;;;;5.07;4.67;;;;;;;;;;5053253;28;20399;-48
2022/08/10 04:38:25;;;;;;;4.37;4.07;;;;;;;;;;5053292;28;20948;-48
2022/08/10 04:40:52;;;;;;;4.47;4.03;;;;;;;;;;5052571;28;20474;-48
2022/08/10 04:43:18;;;;;;;4.97;4.53;;;;;;;;;;5053105;28;20451;-48
2022/08/10 04:45:44;;;;;;;6.43;4.30;;;;;;;;;;5069874;28;20408;-48
2022/08/10 04:48:10;;;;;;;7.77;4.60;;;;;;;;;;5072081;28;20420;-48
2022/08/10 04:50:36;;;;;;;5.97;4.47;;;;;;;;;;5072174;28;20446;-48
2022/08/10 04:53:02;;;;;;;4.30;3.90;;;;;;;;;;5072986;28;20412;-48
2022/08/10 04:55:28;;;;;;;4.17;3.77;;;;;;;;;;5072929;28;20399;-48
2022/08/10 04:57:54;;;;;;;5.40;4.90;;;;;;;;;;5072785;28;20945;-48
2022/08/10 05:00:20;;;;;;;5.90;3.50;;;;;;;;;;5072134;28;20812;-48
2022/08/10 05:02:46;;;;;;;5.00;4.00;;;;;;;;;;5072822;28;20413;-49
2022/08/10 05:05:12;;;;;;;4.53;4.13;;;;;;;;;;5072689;28;20532;-49
2022/08/10 05:07:38;;;;;;;7.30;4.40;;;;;;;;;;5072649;28;20434;-49
2022/08/10 05:10:04;;;;;;;5.90;4.20;;;;;;;;;;5071817;28;20420;-49
2022/08/10 05:12:31;;;;;;;6.67;4.00;;;;;;;;;;5072487;28;20404;-48
2022/08/10 05:14:57;;;;;;;4.43;4.03;;;;;;;;;;5063706;28;20426;-48
2022/08/10 05:17:23;;;;;;;4.30;4.00;;;;;;;;;;5052714;28;20470;-48
2022/08/10 05:19:49;;;;;;;4.87;4.47;;;;;;;;;;5051735;28;20371;-48
2022/08/10 05:22:15;;;;;;;4.83;4.40;;;;;;;;;;5052452;28;20397;-49
2022/08/10 05:24:41;;;;;;;5.23;4.73;;;;;;;;;;5052411;28;20420;-48
2022/08/10 05:27:07;;;;;;;4.30;3.90;;;;;;;;;;5051540;28;20416;-48
2022/08/10 05:29:33;;;;;;;4.60;4.25;;;;;;;;;;5052229;28;20913;-48
2022/08/10 05:31:59;;;;;;;5.07;4.53;;;;;;;;;;5051832;28;20443;-48
2022/08/10 05:34:27;;;;;;;6.10;4.03;;;;;;;;;;5052218;28;20419;-48
2022/08/10 05:36:54;;;;;;;5.73;5.17;;;;;;;;;;5052228;28;20477;-48
2022/08/10 05:39:21;;;;;;;5.77;5.17;;;;;;;;;;5051986;28;20417;-48
2022/08/10 05:41:48;;;;;;;5.83;5.23;;;;;;;;;;5051619;28;20465;-48
2022/08/10 05:44:14;;;;;;;5.70;5.20;;;;;;;;;;5052313;28;20412;-48
2022/08/10 05:46:40;;;;;;;5.40;4.80;;;;;;;;;;5052127;28;20460;-48
2022/08/10 05:49:06;;;;;;;5.73;5.20;;;;;;;;;;5051967;28;20404;-48
2022/08/10 05:51:32;;;;;;;4.97;4.30;;;;;;;;;;5051279;28;20467;-48
2022/08/10 05:53:59;;;;;;;7.40;4.83;;;;;;;;;;5051210;28;20514;-48
2022/08/10 05:56:25;;;;;;;4.90;4.50;;;;;;;;;;5051807;28;20433;-49
2022/08/10 05:58:52;;;;;;;5.23;4.20;;;;;;;;;;5052207;28;20431;-49
2022/08/10 06:01:18;;;;;;;9.47;4.40;;;;;;;;;;5059269;28;20446;-49
2022/08/10 06:03:51;;;;;;;6.80;4.20;;;;;;;;;;5071687;28;20805;-49
2022/08/10 06:06:19;;;;;;;5.13;4.73;;;;;;;;;;5072789;28;20431;-49
2022/08/10 06:08:45;;;;;;;4.67;4.37;;;;;;;;;;5071690;28;20451;-49
2022/08/10 06:11:13;;;;;;;7.70;4.90;;;;;;;;;;5072293;28;20436;-48
2022/08/10 06:16:27;;;;;;;4.93;4.30;;;;;;;;;;5059455;28;20524;-50
2022/08/10 06:18:54;;;;;;;7.40;4.50;;;;;;;;;;5066835;28;20432;-50
2022/08/10 06:21:20;;;;;;;4.73;4.03;;;;;;;;;;5070975;28;20438;-48
2022/08/10 06:23:47;;;;;;;4.50;4.10;;;;;;;;;;5071663;28;20401;-48
2022/08/10 06:26:13;;;;;;;5.30;4.80;;;;;;;;;;5071534;28;20922;-48
2022/08/10 06:28:40;;;;;;;3.67;3.37;;;;;;;;;;5071644;28;20488;-48
2022/08/10 06:31:06;;;;;;;8.73;4.20;;;;;;;;;;5070942;28;20615;-48
2022/08/10 06:33:34;;;;;;;4.30;3.90;;;;;;;;;;5071386;28;20409;-49
2022/08/10 06:36:00;;;;;;;6.53;3.30;;;;;;;;;;5071485;28;20404;-49
2022/08/10 06:38:29;;;;;;;5.03;4.00;;;;;;;;;;5073767;28;20401;-49
2022/08/10 06:40:56;;;;;;;5.43;4.03;;;;;;;;;;5074785;28;20392;-48
2022/08/10 06:43:23;;;;;;;6.50;4.50;;;;;;;;;;5075392;28;20784;-48
2022/08/10 06:45:52;;;;;;;5.90;4.23;;;;;;;;;;5072198;28;20513;-48
2022/08/10 06:48:26;;;;;;;5.10;3.67;;;;;;;;;;5055243;28;20785;-48
2022/08/10 06:51:01;;;;;;;4.40;3.97;;;;;;;;;;5072962;28;20465;-48
2022/08/10 06:53:53;;;;;;;3.40;3.20;;;;;;;;;;5075255;28;20825;-48
2022/08/10 06:56:20;;;;;;;6.17;3.80;;;;;;;;;;5074027;28;20431;-47
2022/08/10 06:58:52;;;;;;;6.43;3.90;;;;;;;;;;5080385;28;20431;-48
2022/08/10 07:01:19;;;;;;;3.30;3.10;;;;;;;;;;5094588;28;20494;-48
2022/08/10 07:03:53;;;;;;;3.80;3.50;;;;;;;;;;5095147;28;20411;-48
2022/08/10 07:06:20;;;;;;;3.50;3.20;;;;;;;;;;5095140;28;20430;-48
2022/08/10 07:08:46;;;;;;;4.27;3.70;;;;;;;;;;5095014;28;20432;-48
2022/08/10 07:11:13;;;;;;;5.33;3.83;;;;;;;;;;5094048;28;20899;-48
2022/08/10 07:13:40;;;;;;;12.47;3.93;;;;;;;;;;5095011;28;20953;-47
2022/08/10 07:16:09;;;;;;;5.30;3.30;;;;;;;;;;5092394;28;20450;-48
2022/08/10 07:18:35;;;;;;;4.17;3.87;;;;;;;;;;5055000;28;20445;-48
2022/08/10 07:21:02;;;;;;;3.90;3.60;;;;;;;;;;5053974;28;20458;-48
2022/08/10 07:23:28;;;;;;;4.13;3.73;;;;;;;;;;5054514;28;20926;-48
2022/08/10 07:25:55;;;;;;;6.90;3.10;;;;;;;;;;5053666;28;20945;-48
2022/08/10 07:28:21;;;;;;;4.83;3.37;;;;;;;;;;5054501;28;20389;-48
2022/08/10 07:30:48;;;;;;;4.30;3.47;;;;;;;;;;5053690;28;20465;-48
2022/08/10 07:33:16;;;;;;;3.67;3.37;;;;;;;;;;5054409;28;20428;-48
2022/08/10 07:35:42;;;;;;;7.30;3.40;;;;;;;;;;5054307;28;20400;-48
2022/08/10 07:38:10;;;;;;;3.77;3.40;;;;;;;;;;5054150;28;20915;-48
2022/08/10 07:40:36;;;;;;;4.00;3.37;;;;;;;;;;5053547;28;20804;-48
2022/08/10 07:43:02;;;;;;;3.87;3.17;;;;;;;;;;5054414;28;20405;-48
2022/08/10 07:45:31;;;;;;;4.40;3.37;;;;;;;;;;5054496;28;20407;-48
2022/08/10 07:47:59;;;;;;;4.33;3.37;;;;;;;;;;5053789;28;20463;-48
2022/08/10 07:50:25;;;;;;;4.20;3.20;;;;;;;;;;5052424;28;20539;-48
2022/08/10 07:52:52;;;;;;;5.10;3.07;;;;;;;;;;5053903;28;20407;-47
2022/08/10 07:55:20;;;;;;;3.00;2.73;;;;;;;;;;5053991;28;20398;-50
2022/08/10 07:57:49;;;;;;;4.00;3.17;;;;;;;;;;5053806;28;20444;-48
2022/08/10 08:00:15;;;;;;;3.67;3.03;;;;;;;;;;5053649;28;20411;-47
2022/08/10 08:02:45;;;;;;;5.07;3.00;;;;;;;;;;5052470;28;20948;-49
2022/08/10 08:05:12;;;;;;;4.90;3.43;;;;;;;;;;5053668;28;20408;-48
2022/08/10 08:07:39;;;;;;;3.67;3.33;;;;;;;;;;5053689;28;20429;-48
2022/08/10 08:10:06;;;;;;;3.07;2.80;;;;;;;;;;5052813;28;20448;-48
2022/08/10 08:12:33;;;;;;;3.87;2.80;;;;;;;;;;5053677;28;20402;-48
2022/08/10 08:14:59;;;;;;;3.80;2.77;;;;;;;;;;5053739;28;20873;-48
2022/08/10 08:17:26;;;;;;;3.30;3.00;;;;;;;;;;5053363;28;20457;-48
2022/08/10 08:19:53;;;;;;;3.23;3.00;;;;;;;;;;5055403;28;20923;-48
2022/08/10 08:22:20;;;;;;;3.37;2.73;;;;;;;;;;5073506;28;20809;-48
2022/08/10 08:24:46;;;;;;;5.10;3.00;;;;;;;;;;5073419;28;20432;-48
2022/08/10 08:27:15;;;;;;;2.70;2.50;;;;;;;;;;5073315;28;20420;-48
2022/08/10 08:29:42;;;;;;;3.13;2.60;;;;;;;;;;5072835;28;20401;-48
2022/08/10 08:32:09;;;;;;;2.93;2.73;;;;;;;;;;5072127;28;20409;-48
2022/08/10 08:34:40;;;;;;;3.10;2.80;;;;;;;;;;5073200;28;20404;-48
2022/08/10 08:37:10;;;;;;;3.30;2.97;;;;;;;;;;5072400;28;20416;-48
2022/08/10 08:39:36;;;;;;;8.50;3.47;;;;;;;;;;5073473;28;20404;-48
2022/08/10 08:42:07;;;;;;;2.80;2.60;;;;;;;;;;5072754;28;20427;-48
2022/08/10 08:44:58;;;;;;;3.30;3.10;;;;;;;;;;5073263;28;20408;-49
2022/08/10 08:47:24;;;;;;;6.80;2.33;;;;;;;;;;5063945;28;20445;-49
2022/08/10 08:50:09;;;;;;;3.07;2.57;;;;;;;;;;5052264;28;20409;-49
2022/08/10 08:52:35;;;;;;;4.83;2.80;;;;;;;;;;5053116;28;20627;-49
2022/08/10 08:55:03;;;;;;;5.20;2.83;;;;;;;;;;5053060;28;20397;-49
2022/08/10 08:57:56;;;;;;;2.63;2.43;;;;;;;;;;5052625;28;20453;-49
2022/08/10 09:00:37;;;;;;;12.50;4.03;;;;;;;;;;5050055;28;20417;-48
2022/08/10 09:03:03;;;;;;;2.90;2.70;;;;;;;;;;5052842;28;20408;-49
2022/08/10 09:05:48;;;;;;;6.23;2.40;;;;;;;;;;5052843;28;20401;-48
2022/08/10 09:08:23;;;;;;;3.27;2.50;;;;;;;;;;5052882;28;20631;-49
2022/08/10 09:10:52;;;;;;;2.90;2.70;;;;;;;;;;5051936;28;20463;-49
2022/08/10 09:13:18;;;;;;;2.50;2.30;;;;;;;;;;5052719;28;20397;-49
2022/08/10 09:15:54;;;;;;;3.30;2.10;;;;;;;;;;5052527;28;20405;-49
2022/08/10 09:18:24;;;;;;;2.40;2.20;;;;;;;;;;5052980;28;20437;-49
2022/08/10 09:20:54;;;;;;;3.40;2.83;;;;;;;;;;5051958;28;20405;-49
2022/08/10 09:23:28;;;;;;;3.03;2.73;;;;;;;;;;5052383;28;20393;-49
2022/08/10 09:26:07;;;;;;;2.83;2.50;;;;;;;;;;5052497;28;20405;-49
2022/08/10 09:28:36;;;;;;;3.33;3.03;;;;;;;;;;5052432;28;20401;-49
2022/08/10 09:31:04;;;;;;;4.00;3.70;;;;;;;;;;5051505;28;20452;-49
2022/08/10 09:33:37;;;;;;;4.40;2.93;;;;;;;;;;5052292;28;20398;-49
2022/08/10 09:36:11;;;;;;;6.03;2.97;;;;;;;;;;5052530;28;20421;-49
2022/08/10 09:38:47;;;;;;;2.83;2.63;;;;;;;;;;5052693;28;20406;-49
2022/08/10 09:41:19;;;;;;;3.40;3.10;;;;;;;;;;5051466;28;20411;-49
2022/08/10 09:43:56;;;;;;;3.23;3.03;;;;;;;;;;5068027;28;20408;-49
2022/08/10 09:46:34;;;;;;;2.67;2.47;;;;;;;;;;5071920;28;20416;-49
2022/08/10 09:49:03;;;;;;;3.50;2.80;;;;;;;;;;5060500;28;20429;-50
2022/08/10 09:51:44;;;;;;;5.33;2.90;;;;;;;;;;5051142;28;20971;-49
2022/08/10 09:54:16;;;;;;;1.90;1.80;;;;;;;;;;5051881;28;20398;-50
2022/08/10 09:57:05;;;;;;;2.53;2.33;;;;;;;;;;5051614;28;20909;-50
2022/08/10 09:59:46;;;;;;;2.87;2.67;;;;;;;;;;5051643;28;20455;-49
2022/08/10 10:02:26;;;;;;;2.87;2.67;;;;;;;;;;5051556;28;20408;-50
2022/08/10 10:05:10;;;;;;;2.30;2.10;;;;;;;;;;5051747;28;20392;-49
2022/08/10 10:07:39;;;;;;;5.77;2.83;;;;;;;;;;5051676;28;20419;-49
2022/08/10 10:10:22;;;;;;;3.90;2.10;;;;;;;;;;5050792;28;20555;-49
2022/08/10 10:12:57;;;;;;;5.00;2.60;;;;;;;;;;5051321;28;20908;-50
2022/08/10 10:15:26;;;;;;;2.50;2.40;;;;;;;;;;5051584;28;20410;-50
2022/08/10 10:18:11;;;;;;;3.13;2.27;;;;;;;;;;5059774;28;20448;-49
2022/08/10 10:20:56;;;;;;;5.43;2.60;;;;;;;;;;5070826;28;20495;-50
2022/08/10 10:23:37;;;;;;;2.50;2.40;;;;;;;;;;5071519;28;20835;-50
2022/08/10 10:26:03;;;;;;;2.57;2.30;;;;;;;;;;5070660;28;20570;-50
2022/08/10 10:28:45;;;;;;;2.67;2.50;;;;;;;;;;5071472;28;20829;-50
2022/08/10 10:31:11;;;;;;;4.63;2.37;;;;;;;;;;5070655;28;20486;-50
2022/08/10 10:33:55;;;;;;;2.50;2.30;;;;;;;;;;5067103;28;20558;-50
2022/08/10 10:36:22;;;;;;;4.20;2.27;;;;;;;;;;5070430;28;20201;-51
2022/08/10 10:38:48;;;;;;;2.40;2.30;;;;;;;;;;5071384;28;20395;-51
2022/08/10 10:41:35;;;;;;;3.63;2.77;;;;;;;;;;5070797;28;20489;-50
2022/08/10 10:44:13;;;;;;;2.60;2.40;;;;;;;;;;5071247;28;20408;-50
2022/08/10 10:46:49;;;;;;;2.50;2.30;;;;;;;;;;5071469;28;20454;-50
2022/08/10 10:49:15;;;;;;;2.70;2.50;;;;;;;;;;5071336;28;20419;-50
2022/08/10 10:51:48;;;;;;;4.50;2.50;;;;;;;;;;5070500;28;20959;-50
2022/08/10 10:54:21;;;;;;;2.67;2.47;;;;;;;;;;5059498;28;20262;-50
2022/08/10 10:56:54;;;;;;;2.43;2.20;;;;;;;;;;5050883;28;20441;-49
2022/08/10 10:59:38;;;;;;;2.33;2.20;;;;;;;;;;5050412;28;20397;-50
2022/08/10 11:02:05;;;;;;;4.60;2.43;;;;;;;;;;5051031;28;20480;-50
2022/08/10 11:04:40;;;;;;;2.77;2.27;;;;;;;;;;5050052;28;20441;-50
2022/08/10 11:07:21;;;;;;;2.63;2.43;;;;;;;;;;5051414;28;20255;-50
2022/08/10 11:10:02;;;;;;;2.43;2.23;;;;;;;;;;5050395;28;20405;-50
2022/08/10 11:12:44;;;;;;;2.00;1.90;;;;;;;;;;5050909;28;20448;-50
2022/08/10 11:15:23;;;;;;;2.90;2.40;;;;;;;;;;5051427;28;20409;-50
2022/08/10 11:17:58;;;;;;;4.23;2.20;;;;;;;;;;5051165;28;20451;-50
2022/08/10 11:20:32;;;;;;;2.63;2.20;;;;;;;;;;5050433;28;20414;-50
2022/08/10 11:23:13;;;;;;;2.07;1.90;;;;;;;;;;5051077;28;20397;-50
2022/08/10 11:25:41;;;;;;;3.50;2.27;;;;;;;;;;5053676;28;20413;-50
2022/08/10 11:28:15;;;;;;;3.70;2.40;;;;;;;;;;5054768;28;20425;-50
2022/08/10 11:31:00;;;;;;;2.50;2.30;;;;;;;;;;5061155;28;20491;-50
2022/08/10 11:33:39;;;;;;;2.83;2.00;;;;;;;;;;5056026;28;20897;-49
2022/08/10 11:36:10;;;;;;;1.90;1.80;;;;;;;;;;5067005;28;20458;-49
2022/08/10 11:39:01;;;;;;;2.37;2.17;;;;;;;;;;5074433;28;20443;-49
2022/08/10 11:41:41;;;;;;;2.23;1.90;;;;;;;;;;5052277;28;20566;-49
2022/08/10 11:44:20;;;;;;;2.40;2.20;;;;;;;;;;5055104;28;20392;-49
2022/08/10 11:46:53;;;;;;;2.30;1.90;;;;;;;;;;5054261;28;20421;-49
2022/08/10 11:49:29;;;;;;;2.37;2.17;;;;;;;;;;5054203;28;20405;-49
2022/08/10 11:51:57;;;;;;;2.30;2.10;;;;;;;;;;5052753;28;20487;-49
2022/08/10 11:54:30;;;;;;;3.00;1.87;;;;;;;;;;5054218;28;20402;-49
2022/08/10 11:56:58;;;;;;;2.20;2.10;;;;;;;;;;5053711;28;20429;-49
2022/08/10 12:02:13;;;;;;;2.00;1.90;;;;;;;;;;5054045;28;20415;-48
2022/08/10 12:04:40;;;;;;;2.40;2.20;;;;;;;;;;5053762;28;20892;-50
2022/08/10 12:07:08;;;;;;;3.93;2.30;;;;;;;;;;5053575;28;20425;-49
2022/08/10 12:09:34;;;;;;;2.33;2.00;;;;;;;;;;5053599;28;20483;-50
2022/08/10 12:12:00;;;;;;;2.40;2.17;;;;;;;;;;5052987;28;20452;-48
2022/08/10 12:14:50;;;;;;;2.53;2.30;;;;;;;;;;5053637;28;20447;-49
2022/08/10 12:17:18;;;;;;;2.37;2.27;;;;;;;;;;5053493;28;20432;-49
2022/08/10 12:19:44;;;;;;;2.80;2.37;;;;;;;;;;5052417;28;20425;-49
2022/08/10 12:22:11;;;;;;;2.20;1.90;;;;;;;;;;5053601;28;20412;-49
2022/08/10 12:24:41;;;;;;;2.47;2.37;;;;;;;;;;5053655;28;20179;-51
2022/08/10 12:27:11;;;;;;;4.83;1.97;;;;;;;;;;5053392;28;20929;-49
2022/08/10 12:29:47;;;;;;;2.27;2.17;;;;;;;;;;5053294;28;20512;-48
2022/08/10 12:32:16;;;;;;;2.30;2.10;;;;;;;;;;5053378;28;20917;-48
2022/08/10 12:35:03;;;;;;;2.30;2.20;;;;;;;;;;5053582;28;20400;-49
2022/08/10 12:37:32;;;;;;;2.67;2.00;;;;;;;;;;5053320;28;20417;-50
2022/08/10 12:40:17;;;;;;;1.97;1.87;;;;;;;;;;5053566;28;20401;-49
2022/08/10 12:42:55;;;;;;;2.43;2.23;;;;;;;;;;5054185;28;20409;-52
2022/08/10 12:45:43;;;;;;;3.30;2.30;;;;;;;;;;5053366;28;20401;-52
2022/08/10 12:48:13;;;;;;;1.90;1.80;;;;;;;;;;5053123;28;20492;-51
2022/08/10 12:50:41;;;;;;;2.50;2.30;;;;;;;;;;5053057;28;20556;-50
2022/08/10 12:53:24;;;;;;;4.23;2.10;;;;;;;;;;5056074;28;20421;-51
2022/08/10 12:55:51;;;;;;;3.37;2.10;;;;;;;;;;5052999;28;20394;-51
2022/08/10 12:58:18;;;;;;;2.90;2.00;;;;;;;;;;5052880;28;20413;-52
2022/08/10 13:00:44;;;;;;;2.40;1.93;;;;;;;;;;5052158;28;20414;-51
2022/08/10 13:03:11;;;;;;;5.13;2.10;;;;;;;;;;5052754;28;20456;-51
2022/08/10 13:05:38;;;;;;;2.60;2.40;;;;;;;;;;5052982;28;20801;-51
2022/08/10 13:11:00;;;;;;;2.40;2.20;;;;;;;;;;5052113;28;20513;-51
2022/08/10 13:13:30;;;;;;;8.50;2.10;;;;;;;;;;5053257;28;20404;-51
2022/08/10 13:15:57;;;;;;;2.30;2.10;;;;;;;;;;5052459;28;20751;-51
2022/08/10 13:18:25;;;;;;;2.03;1.90;;;;;;;;;;5052594;28;20441;-51
2022/08/10 13:20:53;;;;;;;2.10;2.00;;;;;;;;;;5051353;28;20432;-51
2022/08/10 13:23:24;;;;;;;1.97;1.70;;;;;;;;;;5052491;28;20414;-51
2022/08/10 13:25:51;;;;;;;2.37;2.17;;;;;;;;;;5052291;28;20531;-52
2022/08/10 13:28:20;;;;;;;2.37;2.13;;;;;;;;;;5053878;28;20542;-51
2022/08/10 13:30:47;;;;;;;1.93;1.83;;;;;;;;;;5065005;28;20459;-51
2022/08/10 13:33:16;;;;;;;2.10;2.00;;;;;;;;;;5065582;28;20409;-51
2022/08/10 13:35:44;;;;;;;1.80;1.70;;;;;;;;;;5061807;28;20427;-51
2022/08/10 13:38:14;;;;;;;3.10;2.00;;;;;;;;;;5056536;28;20409;-52
2022/08/10 13:40:40;;;;;;;2.10;2.00;;;;;;;;;;5059886;28;20441;-51
2022/08/10 13:43:08;;;;;;;8.20;1.70;;;;;;;;;;5066477;28;20466;-51
2022/08/10 13:45:39;;;;;;;1.70;1.60;;;;;;;;;;5061506;28;20499;-52
2022/08/10 13:48:14;;;;;;;2.90;1.83;;;;;;;;;;5061936;28;20785;-52
2022/08/10 13:50:41;;;;;;;2.13;1.80;;;;;;;;;;5058952;28;20452;-51
2022/08/10 13:53:11;;;;;;;1.50;1.40;;;;;;;;;;5060717;28;20936;-52
2022/08/10 13:55:40;;;;;;;1.73;1.63;;;;;;;;;;5054604;28;20978;-52
2022/08/10 13:58:06;;;;;;;1.80;1.70;;;;;;;;;;5051795;28;20441;-51
2022/08/10 14:00:35;;;;;;;6.83;2.10;;;;;;;;;;5051608;28;20845;-50
2022/08/10 14:03:10;;;;;;;2.40;1.50;;;;;;;;;;5051670;28;20404;-50
2022/08/10 14:05:39;;;;;;;3.03;1.40;;;;;;;;;;5050655;28;20401;-52
2022/08/10 14:08:09;;;;;;;1.70;1.60;;;;;;;;;;5051592;28;20479;-49
2022/08/10 14:10:40;;;;;;;1.63;1.53;;;;;;;;;;5048831;28;20461;-50
2022/08/10 14:13:07;;;;;;;1.80;1.70;;;;;;;;;;5051828;28;20492;-50
2022/08/10 14:15:34;;;;;;;2.10;2.00;;;;;;;;;;5060565;28;20406;-49
2022/08/10 14:18:02;;;;;;;1.60;1.50;;;;;;;;;;5071557;28;20769;-50
2022/08/10 14:20:29;;;;;;;5.73;1.70;;;;;;;;;;5070887;28;20450;-49
2022/08/10 14:23:01;;;;;;;1.70;1.60;;;;;;;;;;5049992;28;20429;-49
2022/08/10 14:25:27;;;;;;;1.83;1.70;;;;;;;;;;5050609;28;20442;-50
2022/08/10 14:27:55;;;;;;;5.60;2.50;;;;;;;;;;5051511;28;20486;-50
2022/08/10 14:30:21;;;;;;;3.40;2.50;;;;;;;;;;5050897;28;20455;-50
2022/08/10 14:32:49;;;;;;;2.50;1.70;;;;;;;;;;5051721;28;20774;-50
2022/08/10 14:35:16;;;;;;;1.83;1.73;;;;;;;;;;5051523;28;20800;-50
2022/08/10 14:37:48;;;;;;;1.90;1.80;;;;;;;;;;5059332;28;20468;-50
2022/08/10 14:40:17;;;;;;;1.70;1.60;;;;;;;;;;5070820;28;20389;-50
2022/08/10 14:42:50;;;;;;;1.90;1.80;;;;;;;;;;5071805;28;20487;-50
2022/08/10 14:45:20;;;;;;;2.70;1.53;;;;;;;;;;5071583;28;20401;-51
2022/08/10 14:47:46;;;;;;;2.03;1.50;;;;;;;;;;5071400;28;20416;-49
2022/08/10 14:50:16;;;;;;;3.10;1.43;;;;;;;;;;5070798;28;20431;-49
2022/08/10 14:52:42;;;;;;;1.87;1.77;;;;;;;;;;5071442;28;20424;-50
2022/08/10 14:55:09;;;;;;;1.90;1.80;;;;;;;;;;5071369;28;20397;-50
2022/08/10 14:57:42;;;;;;;1.70;1.60;;;;;;;;;;5067239;28;20487;-49
2022/08/10 15:00:09;;;;;;;1.60;1.50;;;;;;;;;;5061140;28;20519;-51
2022/08/10 15:02:36;;;;;;;2.00;1.70;;;;;;;;;;5074861;28;20404;-50
2022/08/10 15:05:02;;;;;;;2.07;1.97;;;;;;;;;;5074880;28;20408;-51
2022/08/10 15:07:31;;;;;;;2.27;1.90;;;;;;;;;;5074789;28;20427;-50
2022/08/10 15:09:57;;;;;;;4.30;1.60;;;;;;;;;;5073835;28;20398;-50